KDCA/DCA METAR and TAF weather

Enter ICAO airport designator
Station Type Date Time Source
KDCA METAR 2020/02/24 22:52 UTC NOAA

KDCA 242252Z 18007KT 10SM OVC090 11/03 A2995 RMK AO2 SLP142 T01060028


Station Type Date Time Source
KDCA Decoded METAR 2020/02/24 22:52 UTC NOAA

WASHINGTON NATIONAL AIRPORT , VA, United States (KDCA) 38-51N 077-02W 18M
Feb 24, 2020 - 05:52 PM EST / 2020.02.24 2252 UTC
Wind: from the S (180 degrees) at 8 MPH (7 KT):0
Visibility: 10 mile(s):0
Sky conditions: overcast
Temperature: 51.1 F (10.6 C)
Dew Point: 37.0 F (2.8 C)
Relative Humidity: 58%
Pressure (altimeter): 29.95 in. Hg (1014 hPa)
ob: KDCA 242252Z 18007KT 10SM OVC090 11/03 A2995 RMK AO2 SLP142 T01060028
cycle: 23

Station Type Date Time Source
KDCA TAF 2020/02/24 21:58 UTC NOAA

TAF
AMD KDCA 242058Z 2421/2524 20010KT P6SM SCT100 OVC200
FM250700 15004KT 5SM -RA BR SCT008 OVC015
FM251000 11005KT 2SM -RADZ BR BKN005 OVC015
FM251500 05005KT 3SM -DZ BR BKN005 OVC015
FM251900 05005KT 5SM -DZ BR BKN008 OVC015

Example: see airport list